sensor_id;sensor_type;location;lat;lon;timestamp;P1;durP1;ratioP1;P2;durP2;ratioP2
6614;SDS011;3343;42.896;23.912;2022-09-29T00:00:50;4.30;;;2.47;;
6614;SDS011;3343;42.896;23.912;2022-09-29T00:03:19;8.17;;;2.60;;
6614;SDS011;3343;42.896;23.912;2022-09-29T00:05:47;2.40;;;2.20;;
6614;SDS011;3343;42.896;23.912;2022-09-29T00:08:15;5.07;;;2.73;;
6614;SDS011;3343;42.896;23.912;2022-09-29T00:10:43;5.00;;;2.00;;
6614;SDS011;3343;42.896;23.912;2022-09-29T00:13:11;4.37;;;2.00;;
6614;SDS011;3343;42.896;23.912;2022-09-29T00:15:38;2.10;;;1.90;;
6614;SDS011;3343;42.896;23.912;2022-09-29T00:18:05;2.30;;;2.00;;
6614;SDS011;3343;42.896;23.912;2022-09-29T00:20:34;2.43;;;2.23;;
6614;SDS011;3343;42.896;23.912;2022-09-29T00:23:01;2.43;;;2.17;;
6614;SDS011;3343;42.896;23.912;2022-09-29T00:25:28;3.23;;;1.90;;
6614;SDS011;3343;42.896;23.912;2022-09-29T00:27:55;4.67;;;2.20;;
6614;SDS011;3343;42.896;23.912;2022-09-29T00:30:22;3.10;;;2.30;;
6614;SDS011;3343;42.896;23.912;2022-09-29T00:32:48;3.23;;;2.53;;
6614;SDS011;3343;42.896;23.912;2022-09-29T00:35:15;2.77;;;2.20;;
6614;SDS011;3343;42.896;23.912;2022-09-29T00:37:44;3.87;;;2.30;;
6614;SDS011;3343;42.896;23.912;2022-09-29T00:40:11;2.27;;;2.07;;
6614;SDS011;3343;42.896;23.912;2022-09-29T00:42:38;6.90;;;1.80;;
6614;SDS011;3343;42.896;23.912;2022-09-29T00:45:18;6.30;;;1.83;;
6614;SDS011;3343;42.896;23.912;2022-09-29T00:47:52;2.23;;;2.03;;
6614;SDS011;3343;42.896;23.912;2022-09-29T00:50:27;5.03;;;1.90;;
6614;SDS011;3343;42.896;23.912;2022-09-29T00:53:06;2.30;;;2.10;;
6614;SDS011;3343;42.896;23.912;2022-09-29T00:55:37;2.93;;;2.10;;
6614;SDS011;3343;42.896;23.912;2022-09-29T00:58:10;5.80;;;1.87;;
6614;SDS011;3343;42.896;23.912;2022-09-29T01:00:41;4.73;;;1.93;;
6614;SDS011;3343;42.896;23.912;2022-09-29T01:03:10;2.00;;;1.80;;
6614;SDS011;3343;42.896;23.912;2022-09-29T01:05:42;1.90;;;1.80;;
6614;SDS011;3343;42.896;23.912;2022-09-29T01:08:15;1.77;;;1.63;;
6614;SDS011;3343;42.896;23.912;2022-09-29T01:10:46;1.90;;;1.70;;
6614;SDS011;3343;42.896;23.912;2022-09-29T01:13:13;2.23;;;1.93;;
6614;SDS011;3343;42.896;23.912;2022-09-29T01:15:40;2.13;;;1.93;;
6614;SDS011;3343;42.896;23.912;2022-09-29T01:18:07;2.80;;;1.93;;
6614;SDS011;3343;42.896;23.912;2022-09-29T01:20:35;6.43;;;2.20;;
6614;SDS011;3343;42.896;23.912;2022-09-29T01:23:18;1.80;;;1.63;;
6614;SDS011;3343;42.896;23.912;2022-09-29T01:26:12;4.40;;;1.83;;
6614;SDS011;3343;42.896;23.912;2022-09-29T01:32:15;4.43;;;2.27;;
6614;SDS011;3343;42.896;23.912;2022-09-29T01:34:51;1.67;;;1.57;;
6614;SDS011;3343;42.896;23.912;2022-09-29T01:37:28;2.13;;;1.70;;
6614;SDS011;3343;42.896;23.912;2022-09-29T01:40:04;1.90;;;1.60;;
6614;SDS011;3343;42.896;23.912;2022-09-29T01:42:38;3.30;;;1.93;;
6614;SDS011;3343;42.896;23.912;2022-09-29T01:45:12;2.10;;;1.80;;
6614;SDS011;3343;42.896;23.912;2022-09-29T01:47:44;2.00;;;1.60;;
6614;SDS011;3343;42.896;23.912;2022-09-29T01:50:17;2.53;;;1.73;;
6614;SDS011;3343;42.896;23.912;2022-09-29T01:52:48;2.73;;;1.93;;
6614;SDS011;3343;42.896;23.912;2022-09-29T01:55:20;4.20;;;1.57;;
6614;SDS011;3343;42.896;23.912;2022-09-29T01:57:53;1.70;;;1.50;;
6614;SDS011;3343;42.896;23.912;2022-09-29T02:00:23;2.20;;;1.87;;
6614;SDS011;3343;42.896;23.912;2022-09-29T02:02:57;1.60;;;1.50;;
6614;SDS011;3343;42.896;23.912;2022-09-29T02:05:32;4.13;;;1.60;;
6614;SDS011;3343;42.896;23.912;2022-09-29T02:08:06;2.40;;;1.80;;
6614;SDS011;3343;42.896;23.912;2022-09-29T02:10:36;1.97;;;1.70;;
6614;SDS011;3343;42.896;23.912;2022-09-29T02:13:11;1.97;;;1.77;;
6614;SDS011;3343;42.896;23.912;2022-09-29T02:15:42;2.30;;;2.10;;
6614;SDS011;3343;42.896;23.912;2022-09-29T02:18:15;2.47;;;2.27;;
6614;SDS011;3343;42.896;23.912;2022-09-29T02:20:46;1.90;;;1.70;;
6614;SDS011;3343;42.896;23.912;2022-09-29T02:23:15;2.53;;;2.07;;
6614;SDS011;3343;42.896;23.912;2022-09-29T02:25:42;2.07;;;1.87;;
6614;SDS011;3343;42.896;23.912;2022-09-29T02:28:12;2.10;;;1.80;;
6614;SDS011;3343;42.896;23.912;2022-09-29T02:30:40;1.93;;;1.80;;
6614;SDS011;3343;42.896;23.912;2022-09-29T02:33:17;3.93;;;1.50;;
6614;SDS011;3343;42.896;23.912;2022-09-29T02:35:48;3.67;;;2.03;;
6614;SDS011;3343;42.896;23.912;2022-09-29T02:38:24;2.40;;;2.20;;
6614;SDS011;3343;42.896;23.912;2022-09-29T02:40:58;3.17;;;1.80;;
6614;SDS011;3343;42.896;23.912;2022-09-29T02:43:39;2.13;;;1.80;;
6614;SDS011;3343;42.896;23.912;2022-09-29T02:46:22;2.87;;;2.03;;
6614;SDS011;3343;42.896;23.912;2022-09-29T02:49:11;5.37;;;2.53;;
6614;SDS011;3343;42.896;23.912;2022-09-29T02:51:54;6.23;;;2.50;;
6614;SDS011;3343;42.896;23.912;2022-09-29T02:54:28;6.47;;;2.70;;
6614;SDS011;3343;42.896;23.912;2022-09-29T02:57:09;3.23;;;2.30;;
6614;SDS011;3343;42.896;23.912;2022-09-29T02:59:44;4.40;;;2.20;;
6614;SDS011;3343;42.896;23.912;2022-09-29T03:02:22;3.50;;;2.13;;
6614;SDS011;3343;42.896;23.912;2022-09-29T03:04:51;3.20;;;2.23;;
6614;SDS011;3343;42.896;23.912;2022-09-29T03:07:18;4.53;;;2.70;;
6614;SDS011;3343;42.896;23.912;2022-09-29T03:09:45;3.33;;;2.40;;
6614;SDS011;3343;42.896;23.912;2022-09-29T03:12:12;2.33;;;2.13;;
6614;SDS011;3343;42.896;23.912;2022-09-29T03:14:39;3.70;;;2.07;;
6614;SDS011;3343;42.896;23.912;2022-09-29T03:17:06;3.20;;;1.87;;
6614;SDS011;3343;42.896;23.912;2022-09-29T03:19:33;2.27;;;1.90;;
6614;SDS011;3343;42.896;23.912;2022-09-29T03:22:01;2.03;;;1.67;;
6614;SDS011;3343;42.896;23.912;2022-09-29T03:24:28;2.10;;;1.87;;
6614;SDS011;3343;42.896;23.912;2022-09-29T03:26:56;2.80;;;2.30;;
6614;SDS011;3343;42.896;23.912;2022-09-29T03:29:23;3.40;;;1.73;;
6614;SDS011;3343;42.896;23.912;2022-09-29T03:31:49;1.87;;;1.70;;
6614;SDS011;3343;42.896;23.912;2022-09-29T03:34:16;5.97;;;2.00;;
6614;SDS011;3343;42.896;23.912;2022-09-29T03:36:43;2.70;;;1.73;;
6614;SDS011;3343;42.896;23.912;2022-09-29T03:39:11;2.90;;;2.07;;
6614;SDS011;3343;42.896;23.912;2022-09-29T03:41:39;4.70;;;1.83;;
6614;SDS011;3343;42.896;23.912;2022-09-29T03:44:06;1.67;;;1.57;;
6614;SDS011;3343;42.896;23.912;2022-09-29T03:46:33;3.03;;;1.93;;
6614;SDS011;3343;42.896;23.912;2022-09-29T03:49:00;1.70;;;1.60;;
6614;SDS011;3343;42.896;23.912;2022-09-29T03:51:27;3.10;;;2.13;;
6614;SDS011;3343;42.896;23.912;2022-09-29T03:53:54;5.93;;;2.10;;
6614;SDS011;3343;42.896;23.912;2022-09-29T03:56:22;2.70;;;2.40;;
6614;SDS011;3343;42.896;23.912;2022-09-29T03:58:49;3.33;;;2.53;;
6614;SDS011;3343;42.896;23.912;2022-09-29T04:01:16;6.53;;;2.80;;
6614;SDS011;3343;42.896;23.912;2022-09-29T04:03:42;4.10;;;3.00;;
6614;SDS011;3343;42.896;23.912;2022-09-29T04:06:09;5.37;;;3.20;;
6614;SDS011;3343;42.896;23.912;2022-09-29T04:08:37;4.57;;;3.27;;
6614;SDS011;3343;42.896;23.912;2022-09-29T04:11:04;4.67;;;3.43;;
6614;SDS011;3343;42.896;23.912;2022-09-29T04:13:32;5.33;;;3.73;;
6614;SDS011;3343;42.896;23.912;2022-09-29T04:16:00;5.77;;;3.50;;
6614;SDS011;3343;42.896;23.912;2022-09-29T04:18:27;5.97;;;3.73;;
6614;SDS011;3343;42.896;23.912;2022-09-29T04:20:55;7.37;;;3.50;;
6614;SDS011;3343;42.896;23.912;2022-09-29T04:23:25;4.53;;;2.97;;
6614;SDS011;3343;42.896;23.912;2022-09-29T04:25:54;4.07;;;2.43;;
6614;SDS011;3343;42.896;23.912;2022-09-29T04:28:20;5.07;;;3.50;;
6614;SDS011;3343;42.896;23.912;2022-09-29T04:30:49;4.90;;;3.30;;
6614;SDS011;3343;42.896;23.912;2022-09-29T04:33:16;3.67;;;2.73;;
6614;SDS011;3343;42.896;23.912;2022-09-29T04:35:43;4.77;;;2.50;;
6614;SDS011;3343;42.896;23.912;2022-09-29T04:38:11;3.10;;;2.20;;
6614;SDS011;3343;42.896;23.912;2022-09-29T04:40:38;4.67;;;2.50;;
6614;SDS011;3343;42.896;23.912;2022-09-29T04:43:04;4.47;;;2.23;;
6614;SDS011;3343;42.896;23.912;2022-09-29T04:45:31;2.37;;;2.07;;
6614;SDS011;3343;42.896;23.912;2022-09-29T04:48:00;3.30;;;2.30;;
6614;SDS011;3343;42.896;23.912;2022-09-29T04:50:27;11.47;;;8.47;;
6614;SDS011;3343;42.896;23.912;2022-09-29T04:52:54;4.23;;;3.33;;
6614;SDS011;3343;42.896;23.912;2022-09-29T04:55:21;4.70;;;3.07;;
6614;SDS011;3343;42.896;23.912;2022-09-29T04:57:48;7.23;;;2.67;;
6614;SDS011;3343;42.896;23.912;2022-09-29T05:00:14;4.20;;;1.97;;
6614;SDS011;3343;42.896;23.912;2022-09-29T05:02:42;6.13;;;2.50;;
6614;SDS011;3343;42.896;23.912;2022-09-29T05:05:10;3.20;;;2.27;;
6614;SDS011;3343;42.896;23.912;2022-09-29T05:07:38;2.40;;;2.13;;
6614;SDS011;3343;42.896;23.912;2022-09-29T05:10:06;3.23;;;2.20;;
6614;SDS011;3343;42.896;23.912;2022-09-29T05:12:34;4.07;;;2.67;;
6614;SDS011;3343;42.896;23.912;2022-09-29T05:15:00;2.33;;;2.00;;
6614;SDS011;3343;42.896;23.912;2022-09-29T05:17:29;4.33;;;2.30;;
6614;SDS011;3343;42.896;23.912;2022-09-29T05:19:56;8.60;;;2.13;;
6614;SDS011;3343;42.896;23.912;2022-09-29T05:22:24;5.23;;;2.53;;
6614;SDS011;3343;42.896;23.912;2022-09-29T05:24:51;7.03;;;2.57;;
6614;SDS011;3343;42.896;23.912;2022-09-29T05:27:18;8.60;;;2.40;;
6614;SDS011;3343;42.896;23.912;2022-09-29T05:29:46;3.23;;;1.93;;
6614;SDS011;3343;42.896;23.912;2022-09-29T05:32:13;3.87;;;2.07;;
6614;SDS011;3343;42.896;23.912;2022-09-29T05:34:40;12.60;;;2.17;;
6614;SDS011;3343;42.896;23.912;2022-09-29T05:37:07;2.60;;;2.00;;
6614;SDS011;3343;42.896;23.912;2022-09-29T05:39:36;1.70;;;1.60;;
6614;SDS011;3343;42.896;23.912;2022-09-29T05:42:04;2.37;;;1.63;;
6614;SDS011;3343;42.896;23.912;2022-09-29T05:44:31;2.77;;;1.87;;
6614;SDS011;3343;42.896;23.912;2022-09-29T05:46:59;2.13;;;1.93;;
6614;SDS011;3343;42.896;23.912;2022-09-29T05:49:25;3.43;;;1.97;;
6614;SDS011;3343;42.896;23.912;2022-09-29T05:51:52;2.00;;;1.80;;
6614;SDS011;3343;42.896;23.912;2022-09-29T05:54:19;10.97;;;3.30;;
6614;SDS011;3343;42.896;23.912;2022-09-29T05:56:48;6.63;;;3.17;;
6614;SDS011;3343;42.896;23.912;2022-09-29T05:59:15;3.95;;;1.90;;
6614;SDS011;3343;42.896;23.912;2022-09-29T06:01:42;3.75;;;2.20;;
6614;SDS011;3343;42.896;23.912;2022-09-29T06:04:09;3.03;;;2.00;;
6614;SDS011;3343;42.896;23.912;2022-09-29T06:06:35;1.67;;;1.50;;
6614;SDS011;3343;42.896;23.912;2022-09-29T06:09:04;8.30;;;2.03;;
6614;SDS011;3343;42.896;23.912;2022-09-29T06:11:32;6.95;;;2.30;;
6614;SDS011;3343;42.896;23.912;2022-09-29T06:14:01;3.25;;;1.80;;
6614;SDS011;3343;42.896;23.912;2022-09-29T06:16:28;1.75;;;1.48;;
6614;SDS011;3343;42.896;23.912;2022-09-29T06:18:57;4.47;;;2.50;;
6614;SDS011;3343;42.896;23.912;2022-09-29T06:21:25;4.13;;;1.90;;
6614;SDS011;3343;42.896;23.912;2022-09-29T06:23:55;1.98;;;1.27;;
6614;SDS011;3343;42.896;23.912;2022-09-29T06:26:23;3.65;;;1.80;;
6614;SDS011;3343;42.896;23.912;2022-09-29T06:28:51;1.50;;;1.40;;
6614;SDS011;3343;42.896;23.912;2022-09-29T06:31:20;4.20;;;1.75;;
6614;SDS011;3343;42.896;23.912;2022-09-29T06:33:48;2.60;;;1.70;;
6614;SDS011;3343;42.896;23.912;2022-09-29T06:36:18;5.03;;;2.33;;
6614;SDS011;3343;42.896;23.912;2022-09-29T06:39:04;3.53;;;2.05;;
6614;SDS011;3343;42.896;23.912;2022-09-29T06:41:32;3.13;;;1.48;;
6614;SDS011;3343;42.896;23.912;2022-09-29T06:43:59;2.85;;;1.30;;
6614;SDS011;3343;42.896;23.912;2022-09-29T06:46:28;1.00;;;1.00;;
6614;SDS011;3343;42.896;23.912;2022-09-29T06:48:55;2.75;;;1.10;;
6614;SDS011;3343;42.896;23.912;2022-09-29T06:51:23;2.95;;;1.70;;
6614;SDS011;3343;42.896;23.912;2022-09-29T06:53:51;1.67;;;1.42;;
6614;SDS011;3343;42.896;23.912;2022-09-29T06:56:18;5.65;;;1.77;;
6614;SDS011;3343;42.896;23.912;2022-09-29T06:58:45;1.15;;;1.05;;
6614;SDS011;3343;42.896;23.912;2022-09-29T07:01:12;1.83;;;1.52;;
6614;SDS011;3343;42.896;23.912;2022-09-29T07:03:41;6.72;;;1.70;;
6614;SDS011;3343;42.896;23.912;2022-09-29T07:06:08;2.13;;;1.20;;
6614;SDS011;3343;42.896;23.912;2022-09-29T07:08:36;2.92;;;1.40;;
6614;SDS011;3343;42.896;23.912;2022-09-29T07:11:04;1.20;;;1.10;;
6614;SDS011;3343;42.896;23.912;2022-09-29T07:13:31;1.95;;;1.20;;
6614;SDS011;3343;42.896;23.912;2022-09-29T07:16:02;1.67;;;1.33;;
6614;SDS011;3343;42.896;23.912;2022-09-29T07:18:32;2.65;;;1.40;;
6614;SDS011;3343;42.896;23.912;2022-09-29T07:21:03;1.30;;;1.20;;
6614;SDS011;3343;42.896;23.912;2022-09-29T07:23:31;0.90;;;0.90;;
6614;SDS011;3343;42.896;23.912;2022-09-29T07:25:58;0.90;;;0.90;;
6614;SDS011;3343;42.896;23.912;2022-09-29T07:28:25;3.67;;;1.20;;
6614;SDS011;3343;42.896;23.912;2022-09-29T07:30:58;1.10;;;1.00;;
6614;SDS011;3343;42.896;23.912;2022-09-29T07:33:26;0.80;;;0.80;;
6614;SDS011;3343;42.896;23.912;2022-09-29T07:35:53;1.17;;;1.00;;
6614;SDS011;3343;42.896;23.912;2022-09-29T07:38:22;1.63;;;0.73;;
6614;SDS011;3343;42.896;23.912;2022-09-29T07:40:48;0.85;;;0.85;;
6614;SDS011;3343;42.896;23.912;2022-09-29T07:43:15;1.63;;;1.08;;
6614;SDS011;3343;42.896;23.912;2022-09-29T07:45:46;1.83;;;1.25;;
6614;SDS011;3343;42.896;23.912;2022-09-29T07:48:14;2.95;;;1.50;;
6614;SDS011;3343;42.896;23.912;2022-09-29T07:50:41;2.10;;;1.30;;
6614;SDS011;3343;42.896;23.912;2022-09-29T07:53:09;2.97;;;1.08;;
6614;SDS011;3343;42.896;23.912;2022-09-29T07:55:38;3.67;;;1.70;;
6614;SDS011;3343;42.896;23.912;2022-09-29T07:58:05;2.63;;;1.00;;
6614;SDS011;3343;42.896;23.912;2022-09-29T08:00:32;1.85;;;1.10;;
6614;SDS011;3343;42.896;23.912;2022-09-29T08:03:00;1.45;;;0.90;;
6614;SDS011;3343;42.896;23.912;2022-09-29T08:05:28;1.50;;;1.08;;
6614;SDS011;3343;42.896;23.912;2022-09-29T08:07:57;2.10;;;1.40;;
6614;SDS011;3343;42.896;23.912;2022-09-29T08:10:25;1.73;;;1.10;;
6614;SDS011;3343;42.896;23.912;2022-09-29T08:12:53;1.73;;;1.40;;
6614;SDS011;3343;42.896;23.912;2022-09-29T08:15:20;1.92;;;1.02;;
6614;SDS011;3343;42.896;23.912;2022-09-29T08:17:47;2.20;;;1.10;;
6614;SDS011;3343;42.896;23.912;2022-09-29T08:20:17;1.20;;;1.10;;
6614;SDS011;3343;42.896;23.912;2022-09-29T08:22:44;1.95;;;1.00;;
6614;SDS011;3343;42.896;23.912;2022-09-29T08:25:10;0.68;;;0.68;;
6614;SDS011;3343;42.896;23.912;2022-09-29T08:27:38;1.25;;;0.85;;
6614;SDS011;3343;42.896;23.912;2022-09-29T08:30:08;2.10;;;1.17;;
6614;SDS011;3343;42.896;23.912;2022-09-29T08:32:35;1.30;;;1.20;;
6614;SDS011;3343;42.896;23.912;2022-09-29T08:35:03;1.40;;;1.13;;
6614;SDS011;3343;42.896;23.912;2022-09-29T08:37:31;1.77;;;1.00;;
6614;SDS011;3343;42.896;23.912;2022-09-29T08:39:58;2.58;;;1.10;;
6614;SDS011;3343;42.896;23.912;2022-09-29T08:42:26;1.02;;;0.85;;
6614;SDS011;3343;42.896;23.912;2022-09-29T08:45:04;0.80;;;0.80;;
6614;SDS011;3343;42.896;23.912;2022-09-29T08:47:39;2.75;;;1.20;;
6614;SDS011;3343;42.896;23.912;2022-09-29T08:50:12;2.42;;;1.23;;
6614;SDS011;3343;42.896;23.912;2022-09-29T08:52:43;2.05;;;1.00;;
6614;SDS011;3343;42.896;23.912;2022-09-29T08:55:21;1.80;;;0.82;;
6614;SDS011;3343;42.896;23.912;2022-09-29T08:57:56;0.90;;;0.80;;
6614;SDS011;3343;42.896;23.912;2022-09-29T09:00:27;1.40;;;1.10;;
6614;SDS011;3343;42.896;23.912;2022-09-29T09:03:07;3.53;;;1.38;;
6614;SDS011;3343;42.896;23.912;2022-09-29T09:08:58;3.20;;;1.35;;
6614;SDS011;3343;42.896;23.912;2022-09-29T09:11:50;1.00;;;1.00;;
6614;SDS011;3343;42.896;23.912;2022-09-29T09:14:38;1.45;;;1.23;;
6614;SDS011;3343;42.896;23.912;2022-09-29T09:17:26;3.00;;;1.05;;
6614;SDS011;3343;42.896;23.912;2022-09-29T09:20:10;1.40;;;1.10;;
6614;SDS011;3343;42.896;23.912;2022-09-29T09:22:48;2.58;;;1.08;;
6614;SDS011;3343;42.896;23.912;2022-09-29T09:25:23;0.82;;;0.82;;
6614;SDS011;3343;42.896;23.912;2022-09-29T09:27:58;1.77;;;1.17;;
6614;SDS011;3343;42.896;23.912;2022-09-29T09:30:31;1.02;;;1.00;;
6614;SDS011;3343;42.896;23.912;2022-09-29T09:33:05;2.88;;;1.00;;
6614;SDS011;3343;42.896;23.912;2022-09-29T09:35:38;1.20;;;1.10;;
6614;SDS011;3343;42.896;23.912;2022-09-29T09:38:10;2.15;;;1.30;;
6614;SDS011;3343;42.896;23.912;2022-09-29T09:40:41;1.15;;;1.00;;
6614;SDS011;3343;42.896;23.912;2022-09-29T09:43:11;1.27;;;0.98;;
6614;SDS011;3343;42.896;23.912;2022-09-29T09:45:45;1.30;;;1.20;;
6614;SDS011;3343;42.896;23.912;2022-09-29T09:48:20;2.20;;;1.10;;
6614;SDS011;3343;42.896;23.912;2022-09-29T09:50:52;1.17;;;0.90;;
6614;SDS011;3343;42.896;23.912;2022-09-29T09:53:19;5.57;;;1.00;;
6614;SDS011;3343;42.896;23.912;2022-09-29T09:55:55;2.35;;;1.10;;
6614;SDS011;3343;42.896;23.912;2022-09-29T09:58:34;0.80;;;0.80;;
6614;SDS011;3343;42.896;23.912;2022-09-29T10:01:14;1.00;;;0.90;;
6614;SDS011;3343;42.896;23.912;2022-09-29T10:03:42;1.58;;;0.85;;
6614;SDS011;3343;42.896;23.912;2022-09-29T10:06:09;1.42;;;0.98;;
6614;SDS011;3343;42.896;23.912;2022-09-29T10:08:38;2.28;;;1.20;;
6614;SDS011;3343;42.896;23.912;2022-09-29T10:11:11;1.25;;;1.00;;
6614;SDS011;3343;42.896;23.912;2022-09-29T10:13:47;1.00;;;0.90;;
6614;SDS011;3343;42.896;23.912;2022-09-29T10:16:21;1.17;;;1.08;;
6614;SDS011;3343;42.896;23.912;2022-09-29T10:18:55;1.10;;;1.00;;
6614;SDS011;3343;42.896;23.912;2022-09-29T10:21:35;1.23;;;1.15;;
6614;SDS011;3343;42.896;23.912;2022-09-29T10:24:04;1.30;;;1.02;;
6614;SDS011;3343;42.896;23.912;2022-09-29T10:26:34;1.58;;;1.10;;
6614;SDS011;3343;42.896;23.912;2022-09-29T10:29:16;1.67;;;1.13;;
6614;SDS011;3343;42.896;23.912;2022-09-29T10:31:56;1.42;;;1.10;;
6614;SDS011;3343;42.896;23.912;2022-09-29T10:34:28;0.98;;;0.90;;
6614;SDS011;3343;42.896;23.912;2022-09-29T10:36:56;2.95;;;1.67;;
6614;SDS011;3343;42.896;23.912;2022-09-29T10:39:32;1.77;;;1.10;;
6614;SDS011;3343;42.896;23.912;2022-09-29T10:42:13;1.60;;;1.20;;
6614;SDS011;3343;42.896;23.912;2022-09-29T10:44:42;2.00;;;1.20;;
6614;SDS011;3343;42.896;23.912;2022-09-29T10:47:15;0.80;;;0.80;;
6614;SDS011;3343;42.896;23.912;2022-09-29T10:49:43;0.85;;;0.80;;
6614;SDS011;3343;42.896;23.912;2022-09-29T10:52:15;1.23;;;0.98;;
6614;SDS011;3343;42.896;23.912;2022-09-29T10:54:51;1.48;;;1.15;;
6614;SDS011;3343;42.896;23.912;2022-09-29T10:57:22;2.38;;;1.52;;
6614;SDS011;3343;42.896;23.912;2022-09-29T10:59:51;1.90;;;1.27;;
6614;SDS011;3343;42.896;23.912;2022-09-29T11:02:24;2.55;;;1.00;;
6614;SDS011;3343;42.896;23.912;2022-09-29T11:04:57;1.20;;;1.10;;
6614;SDS011;3343;42.896;23.912;2022-09-29T11:07:27;1.10;;;0.90;;
6614;SDS011;3343;42.896;23.912;2022-09-29T11:09:55;1.00;;;0.90;;
6614;SDS011;3343;42.896;23.912;2022-09-29T11:12:27;0.90;;;0.90;;
6614;SDS011;3343;42.896;23.912;2022-09-29T11:14:57;1.15;;;0.98;;
6614;SDS011;3343;42.896;23.912;2022-09-29T11:17:26;1.10;;;1.00;;
6614;SDS011;3343;42.896;23.912;2022-09-29T11:19:57;2.35;;;1.05;;
6614;SDS011;3343;42.896;23.912;2022-09-29T11:22:50;2.05;;;0.90;;
6614;SDS011;3343;42.896;23.912;2022-09-29T11:25:37;1.45;;;1.15;;
6614;SDS011;3343;42.896;23.912;2022-09-29T11:28:24;1.50;;;1.30;;
6614;SDS011;3343;42.896;23.912;2022-09-29T11:31:04;2.03;;;1.40;;
6614;SDS011;3343;42.896;23.912;2022-09-29T11:33:41;2.28;;;1.15;;
6614;SDS011;3343;42.896;23.912;2022-09-29T11:36:21;4.38;;;1.30;;
6614;SDS011;3343;42.896;23.912;2022-09-29T11:38:59;1.45;;;1.02;;
6614;SDS011;3343;42.896;23.912;2022-09-29T11:41:42;1.25;;;1.15;;
6614;SDS011;3343;42.896;23.912;2022-09-29T11:44:24;1.10;;;0.90;;
6614;SDS011;3343;42.896;23.912;2022-09-29T11:47:10;1.13;;;1.02;;
6614;SDS011;3343;42.896;23.912;2022-09-29T11:49:53;1.30;;;1.10;;
6614;SDS011;3343;42.896;23.912;2022-09-29T11:52:36;1.83;;;1.02;;
6614;SDS011;3343;42.896;23.912;2022-09-29T11:55:23;1.75;;;1.20;;
6614;SDS011;3343;42.896;23.912;2022-09-29T11:58:00;2.60;;;1.40;;
6614;SDS011;3343;42.896;23.912;2022-09-29T12:00:46;1.40;;;1.20;;
6614;SDS011;3343;42.896;23.912;2022-09-29T12:03:29;3.08;;;1.27;;
6614;SDS011;3343;42.896;23.912;2022-09-29T12:06:08;1.00;;;1.00;;
6614;SDS011;3343;42.896;23.912;2022-09-29T12:08:53;1.10;;;1.00;;
6614;SDS011;3343;42.896;23.912;2022-09-29T12:11:35;0.90;;;0.82;;
6614;SDS011;3343;42.896;23.912;2022-09-29T12:14:10;1.20;;;1.10;;
6614;SDS011;3343;42.896;23.912;2022-09-29T12:16:46;1.55;;;1.20;;
6614;SDS011;3343;42.896;23.912;2022-09-29T12:19:18;0.80;;;0.80;;
6614;SDS011;3343;42.896;23.912;2022-09-29T12:21:50;1.38;;;1.27;;
6614;SDS011;3343;42.896;23.912;2022-09-29T12:24:29;2.03;;;1.20;;
6614;SDS011;3343;42.896;23.912;2022-09-29T12:26:59;1.27;;;0.82;;
6614;SDS011;3343;42.896;23.912;2022-09-29T12:29:33;2.45;;;1.10;;
6614;SDS011;3343;42.896;23.912;2022-09-29T12:32:04;1.20;;;1.10;;
6614;SDS011;3343;42.896;23.912;2022-09-29T12:34:39;2.58;;;1.42;;
6614;SDS011;3343;42.896;23.912;2022-09-29T12:37:13;1.50;;;1.30;;
6614;SDS011;3343;42.896;23.912;2022-09-29T12:39:47;2.65;;;1.20;;
6614;SDS011;3343;42.896;23.912;2022-09-29T12:42:27;2.95;;;1.20;;
6614;SDS011;3343;42.896;23.912;2022-09-29T12:45:05;1.55;;;1.27;;
6614;SDS011;3343;42.896;23.912;2022-09-29T12:47:45;2.20;;;1.48;;
6614;SDS011;3343;42.896;23.912;2022-09-29T12:50:17;2.88;;;1.30;;
6614;SDS011;3343;42.896;23.912;2022-09-29T12:52:48;1.60;;;1.40;;
6614;SDS011;3343;42.896;23.912;2022-09-29T12:55:23;3.47;;;1.48;;
6614;SDS011;3343;42.896;23.912;2022-09-29T12:57:57;1.27;;;1.13;;
6614;SDS011;3343;42.896;23.912;2022-09-29T13:00:30;2.95;;;1.23;;
6614;SDS011;3343;42.896;23.912;2022-09-29T13:03:12;1.42;;;1.23;;
6614;SDS011;3343;42.896;23.912;2022-09-29T13:06:05;2.42;;;1.40;;
6614;SDS011;3343;42.896;23.912;2022-09-29T13:08:55;1.80;;;1.35;;
6614;SDS011;3343;42.896;23.912;2022-09-29T13:11:37;2.08;;;1.30;;
6614;SDS011;3343;42.896;23.912;2022-09-29T13:14:30;1.90;;;1.20;;
6614;SDS011;3343;42.896;23.912;2022-09-29T13:17:10;1.95;;;1.60;;
6614;SDS011;3343;42.896;23.912;2022-09-29T13:19:51;1.70;;;1.38;;
6614;SDS011;3343;42.896;23.912;2022-09-29T13:25:45;2.17;;;1.50;;
6614;SDS011;3343;42.896;23.912;2022-09-29T13:28:27;1.38;;;1.27;;
6614;SDS011;3343;42.896;23.912;2022-09-29T13:30:58;4.30;;;1.35;;
6614;SDS011;3343;42.896;23.912;2022-09-29T13:33:27;5.05;;;2.17;;
6614;SDS011;3343;42.896;23.912;2022-09-29T13:35:55;1.75;;;1.42;;
6614;SDS011;3343;42.896;23.912;2022-09-29T13:38:22;1.50;;;1.35;;
6614;SDS011;3343;42.896;23.912;2022-09-29T13:41:11;2.35;;;1.70;;
6614;SDS011;3343;42.896;23.912;2022-09-29T13:46:36;3.47;;;1.30;;
6614;SDS011;3343;42.896;23.912;2022-09-29T13:49:11;1.95;;;1.48;;
6614;SDS011;3343;42.896;23.912;2022-09-29T13:51:42;1.50;;;1.40;;
6614;SDS011;3343;42.896;23.912;2022-09-29T13:54:24;2.17;;;1.30;;
6614;SDS011;3343;42.896;23.912;2022-09-29T13:59:59;4.43;;;1.40;;
6614;SDS011;3343;42.896;23.912;2022-09-29T14:02:41;1.48;;;1.38;;
6614;SDS011;3343;42.896;23.912;2022-09-29T14:08:10;2.47;;;1.63;;
6614;SDS011;3343;42.896;23.912;2022-09-29T14:10:41;2.08;;;1.45;;
6614;SDS011;3343;42.896;23.912;2022-09-29T14:13:13;1.60;;;1.48;;
6614;SDS011;3343;42.896;23.912;2022-09-29T14:15:48;1.88;;;1.60;;
6614;SDS011;3343;42.896;23.912;2022-09-29T14:18:19;1.38;;;1.27;;
6614;SDS011;3343;42.896;23.912;2022-09-29T14:21:00;2.45;;;1.42;;
6614;SDS011;3343;42.896;23.912;2022-09-29T14:23:45;2.78;;;1.80;;
6614;SDS011;3343;42.896;23.912;2022-09-29T14:29:10;1.77;;;1.48;;
6614;SDS011;3343;42.896;23.912;2022-09-29T14:31:44;2.03;;;1.38;;
6614;SDS011;3343;42.896;23.912;2022-09-29T14:34:16;2.30;;;1.75;;
6614;SDS011;3343;42.896;23.912;2022-09-29T14:36:46;5.22;;;1.70;;
6614;SDS011;3343;42.896;23.912;2022-09-29T14:39:14;3.05;;;1.90;;
6614;SDS011;3343;42.896;23.912;2022-09-29T14:41:42;2.65;;;1.50;;
6614;SDS011;3343;42.896;23.912;2022-09-29T14:44:11;2.85;;;1.70;;
6614;SDS011;3343;42.896;23.912;2022-09-29T14:46:49;2.05;;;1.80;;
6614;SDS011;3343;42.896;23.912;2022-09-29T14:53:26;1.65;;;1.52;;
6614;SDS011;3343;42.896;23.912;2022-09-29T14:56:03;1.90;;;1.70;;
6614;SDS011;3343;42.896;23.912;2022-09-29T14:58:44;2.20;;;1.85;;
6614;SDS011;3343;42.896;23.912;2022-09-29T15:01:25;1.80;;;1.70;;
6614;SDS011;3343;42.896;23.912;2022-09-29T15:03:55;3.40;;;1.90;;
6614;SDS011;3343;42.896;23.912;2022-09-29T15:06:24;2.20;;;1.30;;
6614;SDS011;3343;42.896;23.912;2022-09-29T15:08:53;4.68;;;1.63;;
6614;SDS011;3343;42.896;23.912;2022-09-29T15:11:25;2.42;;;1.60;;
6614;SDS011;3343;42.896;23.912;2022-09-29T15:13:54;1.73;;;1.35;;
6614;SDS011;3343;42.896;23.912;2022-09-29T15:16:25;2.33;;;1.42;;
6614;SDS011;3343;42.896;23.912;2022-09-29T15:21:53;1.48;;;1.20;;
6614;SDS011;3343;42.896;23.912;2022-09-29T15:24:33;2.25;;;1.55;;
6614;SDS011;3343;42.896;23.912;2022-09-29T15:27:11;1.60;;;1.38;;
6614;SDS011;3343;42.896;23.912;2022-09-29T15:29:40;2.75;;;1.80;;
6614;SDS011;3343;42.896;23.912;2022-09-29T15:32:16;1.38;;;1.27;;
6614;SDS011;3343;42.896;23.912;2022-09-29T15:34:49;1.60;;;1.40;;
6614;SDS011;3343;42.896;23.912;2022-09-29T15:37:17;1.60;;;1.50;;
6614;SDS011;3343;42.896;23.912;2022-09-29T15:39:46;1.88;;;1.55;;
6614;SDS011;3343;42.896;23.912;2022-09-29T15:42:18;4.13;;;1.98;;
6614;SDS011;3343;42.896;23.912;2022-09-29T15:44:52;1.83;;;1.60;;
6614;SDS011;3343;42.896;23.912;2022-09-29T15:47:22;3.45;;;2.30;;
6614;SDS011;3343;42.896;23.912;2022-09-29T15:49:53;3.65;;;1.92;;
6614;SDS011;3343;42.896;23.912;2022-09-29T15:52:21;1.77;;;1.60;;
6614;SDS011;3343;42.896;23.912;2022-09-29T15:54:52;1.85;;;1.70;;
6614;SDS011;3343;42.896;23.912;2022-09-29T16:03:17;2.17;;;1.92;;